sensor_id;sensor_type;location;lat;lon;timestamp;P1;durP1;ratioP1;P2;durP2;ratioP2
43628;SDS011;56545;48.224;11.678;2022-10-18T00:01:06;10.85;;;4.32;;
43628;SDS011;56545;48.224;11.678;2022-10-18T00:03:32;10.15;;;3.95;;
43628;SDS011;56545;48.224;11.678;2022-10-18T00:05:59;8.35;;;4.35;;
43628;SDS011;56545;48.224;11.678;2022-10-18T00:08:26;11.38;;;4.45;;
43628;SDS011;56545;48.224;11.678;2022-10-18T00:10:52;18.02;;;4.13;;
43628;SDS011;56545;48.224;11.678;2022-10-18T00:13:18;10.88;;;4.55;;
43628;SDS011;56545;48.224;11.678;2022-10-18T00:15:48;12.65;;;4.45;;
43628;SDS011;56545;48.224;11.678;2022-10-18T00:18:21;10.80;;;4.53;;
43628;SDS011;56545;48.224;11.678;2022-10-18T00:20:58;14.80;;;4.40;;
43628;SDS011;56545;48.224;11.678;2022-10-18T00:23:25;11.23;;;4.35;;
43628;SDS011;56545;48.224;11.678;2022-10-18T00:26:27;9.05;;;4.25;;
43628;SDS011;56545;48.224;11.678;2022-10-18T00:31:18;11.73;;;4.55;;
43628;SDS011;56545;48.224;11.678;2022-10-18T00:33:48;8.13;;;4.30;;
43628;SDS011;56545;48.224;11.678;2022-10-18T00:36:15;11.70;;;4.43;;
43628;SDS011;56545;48.224;11.678;2022-10-18T00:38:41;9.35;;;4.30;;
43628;SDS011;56545;48.224;11.678;2022-10-18T00:41:09;10.65;;;4.30;;
43628;SDS011;56545;48.224;11.678;2022-10-18T00:46:36;11.07;;;4.38;;
43628;SDS011;56545;48.224;11.678;2022-10-18T00:49:05;11.20;;;4.40;;
43628;SDS011;56545;48.224;11.678;2022-10-18T00:51:37;11.70;;;4.20;;
43628;SDS011;56545;48.224;11.678;2022-10-18T00:54:08;9.20;;;4.47;;
43628;SDS011;56545;48.224;11.678;2022-10-18T00:56:34;12.05;;;4.45;;
43628;SDS011;56545;48.224;11.678;2022-10-18T00:59:01;20.48;;;4.60;;
43628;SDS011;56545;48.224;11.678;2022-10-18T01:01:27;11.85;;;4.38;;
43628;SDS011;56545;48.224;11.678;2022-10-18T01:03:53;10.77;;;4.60;;
43628;SDS011;56545;48.224;11.678;2022-10-18T01:06:20;13.25;;;4.35;;
43628;SDS011;56545;48.224;11.678;2022-10-18T01:08:54;11.27;;;3.95;;
43628;SDS011;56545;48.224;11.678;2022-10-18T01:14:21;8.35;;;4.15;;
43628;SDS011;56545;48.224;11.678;2022-10-18T01:17:10;8.30;;;3.63;;
43628;SDS011;56545;48.224;11.678;2022-10-18T01:27:48;9.70;;;4.45;;
43628;SDS011;56545;48.224;11.678;2022-10-18T01:33:06;10.43;;;3.97;;
43628;SDS011;56545;48.224;11.678;2022-10-18T01:36:06;14.05;;;4.22;;
43628;SDS011;56545;48.224;11.678;2022-10-18T01:38:46;9.85;;;4.10;;
43628;SDS011;56545;48.224;11.678;2022-10-18T01:41:16;10.40;;;4.30;;
43628;SDS011;56545;48.224;11.678;2022-10-18T01:43:46;10.32;;;4.40;;
43628;SDS011;56545;48.224;11.678;2022-10-18T01:46:16;12.13;;;4.13;;
43628;SDS011;56545;48.224;11.678;2022-10-18T01:48:46;11.57;;;4.03;;
43628;SDS011;56545;48.224;11.678;2022-10-18T01:51:13;9.88;;;4.30;;
43628;SDS011;56545;48.224;11.678;2022-10-18T01:53:38;15.00;;;4.40;;
43628;SDS011;56545;48.224;11.678;2022-10-18T01:59:02;16.63;;;4.10;;
43628;SDS011;56545;48.224;11.678;2022-10-18T02:01:40;13.00;;;3.83;;
43628;SDS011;56545;48.224;11.678;2022-10-18T02:04:19;19.48;;;8.00;;
43628;SDS011;56545;48.224;11.678;2022-10-18T02:06:51;12.98;;;5.00;;
43628;SDS011;56545;48.224;11.678;2022-10-18T02:09:32;13.20;;;5.22;;
43628;SDS011;56545;48.224;11.678;2022-10-18T02:12:05;14.35;;;6.13;;
43628;SDS011;56545;48.224;11.678;2022-10-18T02:14:34;24.45;;;13.43;;
43628;SDS011;56545;48.224;11.678;2022-10-18T02:17:02;28.83;;;13.80;;
43628;SDS011;56545;48.224;11.678;2022-10-18T02:19:49;25.15;;;12.82;;
43628;SDS011;56545;48.224;11.678;2022-10-18T02:22:17;29.10;;;18.58;;
43628;SDS011;56545;48.224;11.678;2022-10-18T02:24:50;33.92;;;18.23;;
43628;SDS011;56545;48.224;11.678;2022-10-18T02:27:18;32.55;;;19.17;;
43628;SDS011;56545;48.224;11.678;2022-10-18T02:29:44;29.50;;;18.38;;
43628;SDS011;56545;48.224;11.678;2022-10-18T02:32:15;33.90;;;20.17;;
43628;SDS011;56545;48.224;11.678;2022-10-18T02:37:57;34.85;;;19.75;;
43628;SDS011;56545;48.224;11.678;2022-10-18T02:40:24;32.00;;;19.55;;
43628;SDS011;56545;48.224;11.678;2022-10-18T02:42:55;29.10;;;19.90;;
43628;SDS011;56545;48.224;11.678;2022-10-18T02:45:21;27.65;;;18.98;;
43628;SDS011;56545;48.224;11.678;2022-10-18T02:47:48;28.23;;;17.50;;
43628;SDS011;56545;48.224;11.678;2022-10-18T02:50:15;24.58;;;16.33;;
43628;SDS011;56545;48.224;11.678;2022-10-18T02:52:41;21.77;;;15.27;;
43628;SDS011;56545;48.224;11.678;2022-10-18T02:55:07;23.33;;;15.75;;
43628;SDS011;56545;48.224;11.678;2022-10-18T02:57:34;26.60;;;15.25;;
43628;SDS011;56545;48.224;11.678;2022-10-18T03:00:00;22.33;;;14.35;;
43628;SDS011;56545;48.224;11.678;2022-10-18T03:02:28;22.88;;;14.43;;
43628;SDS011;56545;48.224;11.678;2022-10-18T03:04:54;19.70;;;12.93;;
43628;SDS011;56545;48.224;11.678;2022-10-18T03:07:20;19.15;;;12.32;;
43628;SDS011;56545;48.224;11.678;2022-10-18T03:09:46;20.65;;;14.20;;
43628;SDS011;56545;48.224;11.678;2022-10-18T03:12:12;24.30;;;14.95;;
43628;SDS011;56545;48.224;11.678;2022-10-18T03:14:38;23.23;;;14.60;;
43628;SDS011;56545;48.224;11.678;2022-10-18T03:17:04;22.90;;;13.20;;
43628;SDS011;56545;48.224;11.678;2022-10-18T03:19:30;20.15;;;13.05;;
43628;SDS011;56545;48.224;11.678;2022-10-18T03:21:55;16.65;;;11.80;;
43628;SDS011;56545;48.224;11.678;2022-10-18T03:24:21;18.80;;;11.27;;
43628;SDS011;56545;48.224;11.678;2022-10-18T03:26:47;15.10;;;8.40;;
43628;SDS011;56545;48.224;11.678;2022-10-18T03:29:13;12.27;;;8.07;;
43628;SDS011;56545;48.224;11.678;2022-10-18T03:31:39;16.13;;;9.00;;
43628;SDS011;56545;48.224;11.678;2022-10-18T03:34:05;16.17;;;8.35;;
43628;SDS011;56545;48.224;11.678;2022-10-18T03:36:31;17.13;;;7.70;;
43628;SDS011;56545;48.224;11.678;2022-10-18T03:38:58;11.27;;;6.90;;
43628;SDS011;56545;48.224;11.678;2022-10-18T03:41:24;10.85;;;6.60;;
43628;SDS011;56545;48.224;11.678;2022-10-18T03:43:50;12.00;;;6.72;;
43628;SDS011;56545;48.224;11.678;2022-10-18T03:46:15;12.13;;;6.45;;
43628;SDS011;56545;48.224;11.678;2022-10-18T03:48:41;9.82;;;5.72;;
43628;SDS011;56545;48.224;11.678;2022-10-18T03:51:07;8.68;;;4.65;;
43628;SDS011;56545;48.224;11.678;2022-10-18T03:53:33;7.78;;;4.80;;
43628;SDS011;56545;48.224;11.678;2022-10-18T03:55:59;8.35;;;4.88;;
43628;SDS011;56545;48.224;11.678;2022-10-18T03:58:25;16.58;;;4.40;;
43628;SDS011;56545;48.224;11.678;2022-10-18T04:00:51;8.52;;;4.28;;
43628;SDS011;56545;48.224;11.678;2022-10-18T04:03:18;8.57;;;4.07;;
43628;SDS011;56545;48.224;11.678;2022-10-18T04:05:45;10.90;;;4.32;;
43628;SDS011;56545;48.224;11.678;2022-10-18T04:08:12;10.25;;;4.05;;
43628;SDS011;56545;48.224;11.678;2022-10-18T04:10:38;13.60;;;5.00;;
43628;SDS011;56545;48.224;11.678;2022-10-18T04:13:05;9.55;;;3.80;;
43628;SDS011;56545;48.224;11.678;2022-10-18T04:15:31;8.77;;;4.10;;
43628;SDS011;56545;48.224;11.678;2022-10-18T04:17:58;8.63;;;4.15;;
43628;SDS011;56545;48.224;11.678;2022-10-18T04:20:24;8.13;;;3.70;;
43628;SDS011;56545;48.224;11.678;2022-10-18T04:22:51;11.55;;;3.47;;
43628;SDS011;56545;48.224;11.678;2022-10-18T04:25:19;7.45;;;3.33;;
43628;SDS011;56545;48.224;11.678;2022-10-18T04:27:45;8.85;;;3.50;;
43628;SDS011;56545;48.224;11.678;2022-10-18T04:30:11;11.40;;;3.80;;
43628;SDS011;56545;48.224;11.678;2022-10-18T04:32:37;11.90;;;3.60;;
43628;SDS011;56545;48.224;11.678;2022-10-18T04:35:03;8.20;;;3.65;;
43628;SDS011;56545;48.224;11.678;2022-10-18T04:37:30;7.68;;;3.53;;
43628;SDS011;56545;48.224;11.678;2022-10-18T04:39:57;11.35;;;3.58;;
43628;SDS011;56545;48.224;11.678;2022-10-18T04:42:23;8.30;;;3.83;;
43628;SDS011;56545;48.224;11.678;2022-10-18T04:44:49;10.13;;;3.00;;
43628;SDS011;56545;48.224;11.678;2022-10-18T04:47:15;9.98;;;3.35;;
43628;SDS011;56545;48.224;11.678;2022-10-18T04:49:41;12.38;;;3.53;;
43628;SDS011;56545;48.224;11.678;2022-10-18T04:52:08;10.18;;;3.25;;
43628;SDS011;56545;48.224;11.678;2022-10-18T04:54:34;7.38;;;3.08;;
43628;SDS011;56545;48.224;11.678;2022-10-18T04:57:00;8.18;;;3.67;;
43628;SDS011;56545;48.224;11.678;2022-10-18T04:59:26;7.97;;;3.35;;
43628;SDS011;56545;48.224;11.678;2022-10-18T05:01:52;6.97;;;3.13;;
43628;SDS011;56545;48.224;11.678;2022-10-18T05:04:18;7.72;;;3.20;;
43628;SDS011;56545;48.224;11.678;2022-10-18T05:06:44;9.95;;;3.40;;
43628;SDS011;56545;48.224;11.678;2022-10-18T05:09:10;8.98;;;3.25;;
43628;SDS011;56545;48.224;11.678;2022-10-18T05:11:36;6.82;;;3.35;;
43628;SDS011;56545;48.224;11.678;2022-10-18T05:14:02;14.07;;;3.50;;
43628;SDS011;56545;48.224;11.678;2022-10-18T05:16:27;9.35;;;3.40;;
43628;SDS011;56545;48.224;11.678;2022-10-18T05:18:53;6.95;;;3.20;;
43628;SDS011;56545;48.224;11.678;2022-10-18T05:21:19;6.95;;;3.22;;
43628;SDS011;56545;48.224;11.678;2022-10-18T05:23:45;12.40;;;3.45;;
43628;SDS011;56545;48.224;11.678;2022-10-18T05:26:11;10.35;;;2.92;;
43628;SDS011;56545;48.224;11.678;2022-10-18T05:28:37;6.15;;;3.10;;
43628;SDS011;56545;48.224;11.678;2022-10-18T05:31:03;8.30;;;3.40;;
43628;SDS011;56545;48.224;11.678;2022-10-18T05:33:31;5.78;;;3.22;;
43628;SDS011;56545;48.224;11.678;2022-10-18T05:35:57;6.68;;;3.20;;
43628;SDS011;56545;48.224;11.678;2022-10-18T05:38:23;9.88;;;3.55;;
43628;SDS011;56545;48.224;11.678;2022-10-18T05:40:50;7.13;;;2.92;;
43628;SDS011;56545;48.224;11.678;2022-10-18T05:43:16;10.05;;;3.58;;
43628;SDS011;56545;48.224;11.678;2022-10-18T05:45:51;8.85;;;3.10;;
43628;SDS011;56545;48.224;11.678;2022-10-18T05:48:17;7.65;;;3.08;;
43628;SDS011;56545;48.224;11.678;2022-10-18T05:50:43;7.35;;;3.40;;
43628;SDS011;56545;48.224;11.678;2022-10-18T05:53:09;6.75;;;3.33;;
43628;SDS011;56545;48.224;11.678;2022-10-18T05:55:35;8.18;;;3.15;;
43628;SDS011;56545;48.224;11.678;2022-10-18T05:58:01;9.57;;;3.55;;
43628;SDS011;56545;48.224;11.678;2022-10-18T06:00:28;10.43;;;3.20;;
43628;SDS011;56545;48.224;11.678;2022-10-18T06:02:54;12.13;;;3.17;;
43628;SDS011;56545;48.224;11.678;2022-10-18T06:05:20;40.40;;;26.90;;
43628;SDS011;56545;48.224;11.678;2022-10-18T06:07:46;89.57;;;67.65;;
43628;SDS011;56545;48.224;11.678;2022-10-18T06:10:12;12.63;;;5.05;;
43628;SDS011;56545;48.224;11.678;2022-10-18T06:12:37;9.95;;;3.30;;
43628;SDS011;56545;48.224;11.678;2022-10-18T06:15:03;6.82;;;3.22;;
43628;SDS011;56545;48.224;11.678;2022-10-18T06:17:30;7.70;;;3.17;;
43628;SDS011;56545;48.224;11.678;2022-10-18T06:19:56;6.82;;;3.15;;
43628;SDS011;56545;48.224;11.678;2022-10-18T06:22:21;11.05;;;3.15;;
43628;SDS011;56545;48.224;11.678;2022-10-18T06:24:47;8.60;;;3.00;;
43628;SDS011;56545;48.224;11.678;2022-10-18T06:27:13;7.75;;;2.80;;
43628;SDS011;56545;48.224;11.678;2022-10-18T06:29:39;11.15;;;3.10;;
43628;SDS011;56545;48.224;11.678;2022-10-18T06:32:05;7.50;;;3.40;;
43628;SDS011;56545;48.224;11.678;2022-10-18T06:34:32;8.07;;;3.13;;
43628;SDS011;56545;48.224;11.678;2022-10-18T06:36:58;11.80;;;3.55;;
43628;SDS011;56545;48.224;11.678;2022-10-18T06:39:25;10.60;;;3.70;;
43628;SDS011;56545;48.224;11.678;2022-10-18T06:41:51;11.07;;;3.97;;
43628;SDS011;56545;48.224;11.678;2022-10-18T06:44:17;8.75;;;3.72;;
43628;SDS011;56545;48.224;11.678;2022-10-18T06:46:44;7.32;;;3.30;;
43628;SDS011;56545;48.224;11.678;2022-10-18T06:49:11;6.82;;;3.28;;
43628;SDS011;56545;48.224;11.678;2022-10-18T06:51:38;13.10;;;5.95;;
43628;SDS011;56545;48.224;11.678;2022-10-18T06:54:05;9.80;;;4.32;;
43628;SDS011;56545;48.224;11.678;2022-10-18T06:56:31;10.95;;;4.07;;
43628;SDS011;56545;48.224;11.678;2022-10-18T06:58:58;6.88;;;3.25;;
43628;SDS011;56545;48.224;11.678;2022-10-18T07:01:24;10.82;;;3.72;;
43628;SDS011;56545;48.224;11.678;2022-10-18T07:03:52;15.55;;;3.40;;
43628;SDS011;56545;48.224;11.678;2022-10-18T07:06:19;10.40;;;3.97;;
43628;SDS011;56545;48.224;11.678;2022-10-18T07:08:46;10.77;;;3.95;;
43628;SDS011;56545;48.224;11.678;2022-10-18T07:11:14;11.60;;;4.18;;
43628;SDS011;56545;48.224;11.678;2022-10-18T07:13:42;10.00;;;4.60;;
43628;SDS011;56545;48.224;11.678;2022-10-18T07:16:09;13.15;;;3.88;;
43628;SDS011;56545;48.224;11.678;2022-10-18T07:18:41;9.52;;;4.13;;
43628;SDS011;56545;48.224;11.678;2022-10-18T07:21:09;10.50;;;4.80;;
43628;SDS011;56545;48.224;11.678;2022-10-18T07:23:38;9.77;;;5.13;;
43628;SDS011;56545;48.224;11.678;2022-10-18T07:28:45;14.40;;;4.60;;
43628;SDS011;56545;48.224;11.678;2022-10-18T07:31:13;14.95;;;5.88;;
43628;SDS011;56545;48.224;11.678;2022-10-18T07:33:39;9.15;;;4.00;;
43628;SDS011;56545;48.224;11.678;2022-10-18T07:36:07;10.13;;;3.60;;
43628;SDS011;56545;48.224;11.678;2022-10-18T07:38:34;10.63;;;3.63;;
43628;SDS011;56545;48.224;11.678;2022-10-18T07:41:01;8.63;;;3.53;;
43628;SDS011;56545;48.224;11.678;2022-10-18T07:43:30;10.02;;;4.00;;
43628;SDS011;56545;48.224;11.678;2022-10-18T07:45:57;9.63;;;3.22;;
43628;SDS011;56545;48.224;11.678;2022-10-18T07:48:24;7.50;;;3.22;;
43628;SDS011;56545;48.224;11.678;2022-10-18T07:50:50;8.52;;;3.13;;
43628;SDS011;56545;48.224;11.678;2022-10-18T07:53:16;9.43;;;3.20;;
43628;SDS011;56545;48.224;11.678;2022-10-18T07:55:42;9.73;;;4.35;;
43628;SDS011;56545;48.224;11.678;2022-10-18T07:58:09;11.30;;;3.88;;
43628;SDS011;56545;48.224;11.678;2022-10-18T08:00:35;8.85;;;3.60;;
43628;SDS011;56545;48.224;11.678;2022-10-18T08:03:01;6.43;;;3.30;;
43628;SDS011;56545;48.224;11.678;2022-10-18T08:05:28;9.10;;;3.38;;
43628;SDS011;56545;48.224;11.678;2022-10-18T08:07:54;8.68;;;3.47;;
43628;SDS011;56545;48.224;11.678;2022-10-18T08:10:21;7.30;;;3.75;;
43628;SDS011;56545;48.224;11.678;2022-10-18T08:12:48;8.75;;;3.38;;
43628;SDS011;56545;48.224;11.678;2022-10-18T08:15:15;7.57;;;3.33;;
43628;SDS011;56545;48.224;11.678;2022-10-18T08:17:41;11.40;;;3.85;;
43628;SDS011;56545;48.224;11.678;2022-10-18T08:20:08;10.75;;;3.58;;
43628;SDS011;56545;48.224;11.678;2022-10-18T08:22:34;10.13;;;3.30;;
43628;SDS011;56545;48.224;11.678;2022-10-18T08:25:00;7.82;;;3.25;;
43628;SDS011;56545;48.224;11.678;2022-10-18T08:27:26;9.38;;;3.30;;
43628;SDS011;56545;48.224;11.678;2022-10-18T08:29:52;9.13;;;3.45;;
43628;SDS011;56545;48.224;11.678;2022-10-18T08:32:18;8.07;;;3.25;;
43628;SDS011;56545;48.224;11.678;2022-10-18T08:34:44;7.75;;;2.92;;
43628;SDS011;56545;48.224;11.678;2022-10-18T08:37:10;6.32;;;2.92;;
43628;SDS011;56545;48.224;11.678;2022-10-18T08:39:35;9.75;;;3.17;;
43628;SDS011;56545;48.224;11.678;2022-10-18T08:44:58;8.15;;;2.83;;
43628;SDS011;56545;48.224;11.678;2022-10-18T08:47:29;8.77;;;3.55;;
43628;SDS011;56545;48.224;11.678;2022-10-18T08:50:01;7.10;;;2.92;;
43628;SDS011;56545;48.224;11.678;2022-10-18T08:55:21;6.65;;;2.60;;
43628;SDS011;56545;48.224;11.678;2022-10-18T08:58:12;6.20;;;2.72;;
43628;SDS011;56545;48.224;11.678;2022-10-18T09:00:48;7.43;;;2.60;;
43628;SDS011;56545;48.224;11.678;2022-10-18T09:09:14;8.82;;;2.97;;
43628;SDS011;56545;48.224;11.678;2022-10-18T09:17:57;7.68;;;3.20;;
43628;SDS011;56545;48.224;11.678;2022-10-18T09:22:53;8.30;;;2.97;;
43628;SDS011;56545;48.224;11.678;2022-10-18T09:25:32;8.60;;;2.92;;
43628;SDS011;56545;48.224;11.678;2022-10-18T09:36:23;6.85;;;2.92;;
43628;SDS011;56545;48.224;11.678;2022-10-18T09:38:53;5.32;;;2.95;;
43628;SDS011;56545;48.224;11.678;2022-10-18T09:41:24;7.25;;;3.17;;
43628;SDS011;56545;48.224;11.678;2022-10-18T09:46:25;7.82;;;2.78;;
43628;SDS011;56545;48.224;11.678;2022-10-18T09:51:23;6.45;;;2.70;;
43628;SDS011;56545;48.224;11.678;2022-10-18T09:59:03;10.45;;;3.05;;
43628;SDS011;56545;48.224;11.678;2022-10-18T10:01:29;5.93;;;2.85;;
43628;SDS011;56545;48.224;11.678;2022-10-18T10:03:57;5.82;;;2.58;;
43628;SDS011;56545;48.224;11.678;2022-10-18T10:06:29;6.75;;;2.83;;
43628;SDS011;56545;48.224;11.678;2022-10-18T10:09:06;7.35;;;2.88;;
43628;SDS011;56545;48.224;11.678;2022-10-18T10:11:38;6.60;;;2.65;;
43628;SDS011;56545;48.224;11.678;2022-10-18T10:17:04;10.88;;;3.10;;
43628;SDS011;56545;48.224;11.678;2022-10-18T10:19:38;7.20;;;2.60;;
43628;SDS011;56545;48.224;11.678;2022-10-18T10:22:23;6.55;;;2.40;;
43628;SDS011;56545;48.224;11.678;2022-10-18T10:24:52;8.05;;;2.40;;
43628;SDS011;56545;48.224;11.678;2022-10-18T10:27:29;8.82;;;2.60;;
43628;SDS011;56545;48.224;11.678;2022-10-18T10:30:05;6.97;;;2.80;;
43628;SDS011;56545;48.224;11.678;2022-10-18T10:32:53;6.25;;;2.50;;
43628;SDS011;56545;48.224;11.678;2022-10-18T10:35:20;6.35;;;2.38;;
43628;SDS011;56545;48.224;11.678;2022-10-18T10:37:53;6.68;;;2.65;;
43628;SDS011;56545;48.224;11.678;2022-10-18T10:42:51;4.57;;;2.50;;
43628;SDS011;56545;48.224;11.678;2022-10-18T10:45:19;8.80;;;2.38;;
43628;SDS011;56545;48.224;11.678;2022-10-18T10:47:46;6.78;;;2.38;;
43628;SDS011;56545;48.224;11.678;2022-10-18T10:50:12;5.20;;;2.42;;
43628;SDS011;56545;48.224;11.678;2022-10-18T10:52:46;6.22;;;2.63;;
43628;SDS011;56545;48.224;11.678;2022-10-18T10:55:17;7.78;;;2.67;;
43628;SDS011;56545;48.224;11.678;2022-10-18T10:57:46;6.32;;;2.50;;
43628;SDS011;56545;48.224;11.678;2022-10-18T11:03:13;4.63;;;2.30;;
43628;SDS011;56545;48.224;11.678;2022-10-18T11:08:14;5.75;;;2.60;;
43628;SDS011;56545;48.224;11.678;2022-10-18T11:11:01;6.93;;;2.65;;
43628;SDS011;56545;48.224;11.678;2022-10-18T11:13:43;6.15;;;2.60;;
43628;SDS011;56545;48.224;11.678;2022-10-18T11:19:28;7.90;;;2.47;;
43628;SDS011;56545;48.224;11.678;2022-10-18T11:22:15;7.50;;;2.58;;
43628;SDS011;56545;48.224;11.678;2022-10-18T11:24:44;5.15;;;2.33;;
43628;SDS011;56545;48.224;11.678;2022-10-18T11:35:20;6.60;;;2.33;;
43628;SDS011;56545;48.224;11.678;2022-10-18T11:41:13;6.00;;;2.22;;
43628;SDS011;56545;48.224;11.678;2022-10-18T11:44:00;7.93;;;2.40;;
43628;SDS011;56545;48.224;11.678;2022-10-18T11:46:53;8.15;;;2.38;;
43628;SDS011;56545;48.224;11.678;2022-10-18T11:49:35;4.57;;;2.33;;
43628;SDS011;56545;48.224;11.678;2022-10-18T11:52:32;6.70;;;2.30;;
43628;SDS011;56545;48.224;11.678;2022-10-18T11:55:53;5.20;;;2.50;;
43628;SDS011;56545;48.224;11.678;2022-10-18T12:00:45;8.70;;;2.70;;
43628;SDS011;56545;48.224;11.678;2022-10-18T12:03:21;6.97;;;2.28;;
43628;SDS011;56545;48.224;11.678;2022-10-18T12:05:51;5.25;;;2.38;;
43628;SDS011;56545;48.224;11.678;2022-10-18T12:08:39;7.25;;;2.35;;
43628;SDS011;56545;48.224;11.678;2022-10-18T12:11:23;5.97;;;2.15;;
43628;SDS011;56545;48.224;11.678;2022-10-18T12:13:59;7.72;;;2.70;;
43628;SDS011;56545;48.224;11.678;2022-10-18T12:16:31;7.43;;;2.40;;
43628;SDS011;56545;48.224;11.678;2022-10-18T12:19:03;6.40;;;2.53;;
43628;SDS011;56545;48.224;11.678;2022-10-18T12:21:35;6.45;;;2.28;;
43628;SDS011;56545;48.224;11.678;2022-10-18T12:26:52;5.35;;;2.30;;
43628;SDS011;56545;48.224;11.678;2022-10-18T12:32:02;8.70;;;2.40;;
43628;SDS011;56545;48.224;11.678;2022-10-18T12:34:37;9.20;;;2.45;;
43628;SDS011;56545;48.224;11.678;2022-10-18T12:39:49;7.65;;;2.50;;
43628;SDS011;56545;48.224;11.678;2022-10-18T12:42:25;5.70;;;2.40;;
43628;SDS011;56545;48.224;11.678;2022-10-18T12:45:04;11.38;;;2.80;;
43628;SDS011;56545;48.224;11.678;2022-10-18T12:47:42;6.22;;;2.60;;
43628;SDS011;56545;48.224;11.678;2022-10-18T12:53:19;6.05;;;2.50;;
43628;SDS011;56545;48.224;11.678;2022-10-18T12:55:53;8.93;;;2.45;;
43628;SDS011;56545;48.224;11.678;2022-10-18T13:01:02;8.52;;;2.33;;
43628;SDS011;56545;48.224;11.678;2022-10-18T13:03:37;6.25;;;2.03;;
43628;SDS011;56545;48.224;11.678;2022-10-18T13:06:06;6.68;;;1.95;;
43628;SDS011;56545;48.224;11.678;2022-10-18T13:08:39;6.28;;;1.95;;
43628;SDS011;56545;48.224;11.678;2022-10-18T13:14:05;4.70;;;1.90;;
43628;SDS011;56545;48.224;11.678;2022-10-18T13:22:10;5.72;;;2.05;;
43628;SDS011;56545;48.224;11.678;2022-10-18T13:30:19;6.88;;;2.00;;
43628;SDS011;56545;48.224;11.678;2022-10-18T13:35:49;6.45;;;2.03;;
43628;SDS011;56545;48.224;11.678;2022-10-18T13:41:01;9.25;;;2.30;;
43628;SDS011;56545;48.224;11.678;2022-10-18T13:58:16;9.27;;;2.00;;
43628;SDS011;56545;48.224;11.678;2022-10-18T14:00:34;6.55;;;2.22;;
43628;SDS011;56545;48.224;11.678;2022-10-18T14:08:58;6.88;;;2.13;;
43628;SDS011;56545;48.224;11.678;2022-10-18T14:11:44;6.03;;;2.40;;
43628;SDS011;56545;48.224;11.678;2022-10-18T14:14:30;22.75;;;3.30;;
43628;SDS011;56545;48.224;11.678;2022-10-18T14:23:03;10.52;;;2.78;;
43628;SDS011;56545;48.224;11.678;2022-10-18T14:25:46;6.90;;;2.47;;
43628;SDS011;56545;48.224;11.678;2022-10-18T14:33:34;7.90;;;2.20;;
43628;SDS011;56545;48.224;11.678;2022-10-18T14:36:06;9.88;;;2.20;;
43628;SDS011;56545;48.224;11.678;2022-10-18T14:38:36;20.42;;;11.93;;
43628;SDS011;56545;48.224;11.678;2022-10-18T14:43:46;11.77;;;2.67;;
43628;SDS011;56545;48.224;11.678;2022-10-18T14:49:03;9.65;;;3.08;;
43628;SDS011;56545;48.224;11.678;2022-10-18T14:51:31;7.55;;;2.60;;
43628;SDS011;56545;48.224;11.678;2022-10-18T14:54:00;8.45;;;2.30;;
43628;SDS011;56545;48.224;11.678;2022-10-18T14:56:27;8.98;;;2.30;;
43628;SDS011;56545;48.224;11.678;2022-10-18T14:58:55;9.52;;;2.30;;
43628;SDS011;56545;48.224;11.678;2022-10-18T15:01:24;8.88;;;2.17;;
43628;SDS011;56545;48.224;11.678;2022-10-18T15:03:55;6.90;;;2.30;;
43628;SDS011;56545;48.224;11.678;2022-10-18T15:06:23;11.60;;;2.47;;
43628;SDS011;56545;48.224;11.678;2022-10-18T15:08:52;7.85;;;2.50;;
43628;SDS011;56545;48.224;11.678;2022-10-18T15:11:22;9.33;;;3.00;;
43628;SDS011;56545;48.224;11.678;2022-10-18T15:13:57;5.85;;;2.80;;
43628;SDS011;56545;48.224;11.678;2022-10-18T15:16:26;8.80;;;3.08;;
43628;SDS011;56545;48.224;11.678;2022-10-18T15:19:37;15.75;;;9.60;;
43628;SDS011;56545;48.224;11.678;2022-10-18T15:22:07;11.57;;;3.67;;
43628;SDS011;56545;48.224;11.678;2022-10-18T15:24:37;7.55;;;2.83;;
43628;SDS011;56545;48.224;11.678;2022-10-18T15:27:10;8.27;;;2.70;;
43628;SDS011;56545;48.224;11.678;2022-10-18T15:29:37;12.13;;;2.97;;
43628;SDS011;56545;48.224;11.678;2022-10-18T15:32:06;9.80;;;2.90;;
43628;SDS011;56545;48.224;11.678;2022-10-18T15:34:41;11.77;;;2.70;;
43628;SDS011;56545;48.224;11.678;2022-10-18T15:37:14;12.43;;;2.70;;
43628;SDS011;56545;48.224;11.678;2022-10-18T15:42:50;13.00;;;2.60;;
43628;SDS011;56545;48.224;11.678;2022-10-18T15:50:43;14.68;;;2.92;;
43628;SDS011;56545;48.224;11.678;2022-10-18T15:55:49;10.13;;;2.97;;
43628;SDS011;56545;48.224;11.678;2022-10-18T16:00:55;11.63;;;6.88;;
43628;SDS011;56545;48.224;11.678;2022-10-18T16:03:24;14.18;;;5.55;;
43628;SDS011;56545;48.224;11.678;2022-10-18T16:05:58;11.00;;;3.88;;
43628;SDS011;56545;48.224;11.678;2022-10-18T16:08:27;12.80;;;3.30;;
43628;SDS011;56545;48.224;11.678;2022-10-18T16:10:55;8.70;;;3.30;;
43628;SDS011;56545;48.224;11.678;2022-10-18T16:13:24;11.60;;;3.60;;
43628;SDS011;56545;48.224;11.678;2022-10-18T16:15:50;11.82;;;3.97;;
43628;SDS011;56545;48.224;11.678;2022-10-18T16:18:19;30.23;;;19.60;;
43628;SDS011;56545;48.224;11.678;2022-10-18T16:20:46;19.10;;;7.57;;
43628;SDS011;56545;48.224;11.678;2022-10-18T16:23:23;10.25;;;4.35;;
43628;SDS011;56545;48.224;11.678;2022-10-18T16:25:50;11.38;;;3.83;;
43628;SDS011;56545;48.224;11.678;2022-10-18T16:28:18;10.00;;;3.63;;
43628;SDS011;56545;48.224;11.678;2022-10-18T16:30:49;16.90;;;5.28;;
43628;SDS011;56545;48.224;11.678;2022-10-18T16:33:21;13.60;;;5.82;;
43628;SDS011;56545;48.224;11.678;2022-10-18T16:35:47;14.30;;;5.57;;
43628;SDS011;56545;48.224;11.678;2022-10-18T16:38:18;12.77;;;5.47;;
43628;SDS011;56545;48.224;11.678;2022-10-18T16:40:55;10.00;;;5.25;;
43628;SDS011;56545;48.224;11.678;2022-10-18T16:43:22;10.50;;;4.72;;
43628;SDS011;56545;48.224;11.678;2022-10-18T16:45:48;8.52;;;4.05;;
43628;SDS011;56545;48.224;11.678;2022-10-18T16:48:17;10.23;;;4.38;;
43628;SDS011;56545;48.224;11.678;2022-10-18T16:50:44;11.10;;;4.30;;
43628;SDS011;56545;48.224;11.678;2022-10-18T16:53:11;14.10;;;4.40;;
43628;SDS011;56545;48.224;11.678;2022-10-18T16:55:37;10.90;;;4.22;;
43628;SDS011;56545;48.224;11.678;2022-10-18T16:58:05;8.50;;;4.20;;
43628;SDS011;56545;48.224;11.678;2022-10-18T17:00:31;11.68;;;5.40;;
43628;SDS011;56545;48.224;11.678;2022-10-18T17:02:57;15.30;;;5.55;;
43628;SDS011;56545;48.224;11.678;2022-10-18T17:05:24;14.85;;;6.05;;
43628;SDS011;56545;48.224;11.678;2022-10-18T17:07:50;12.30;;;5.25;;
43628;SDS011;56545;48.224;11.678;2022-10-18T17:10:18;12.48;;;5.72;;
43628;SDS011;56545;48.224;11.678;2022-10-18T17:12:45;16.40;;;6.22;;
43628;SDS011;56545;48.224;11.678;2022-10-18T17:15:11;11.68;;;5.05;;
43628;SDS011;56545;48.224;11.678;2022-10-18T17:17:37;12.73;;;5.60;;
43628;SDS011;56545;48.224;11.678;2022-10-18T17:20:04;11.15;;;5.57;;
43628;SDS011;56545;48.224;11.678;2022-10-18T17:22:31;14.50;;;7.68;;
43628;SDS011;56545;48.224;11.678;2022-10-18T17:24:57;18.45;;;11.52;;
43628;SDS011;56545;48.224;11.678;2022-10-18T17:27:23;20.00;;;11.95;;
43628;SDS011;56545;48.224;11.678;2022-10-18T17:29:49;35.05;;;19.75;;
43628;SDS011;56545;48.224;11.678;2022-10-18T17:32:15;22.58;;;9.75;;
43628;SDS011;56545;48.224;11.678;2022-10-18T17:34:41;15.75;;;8.95;;
43628;SDS011;56545;48.224;11.678;2022-10-18T17:37:07;15.05;;;7.93;;
43628;SDS011;56545;48.224;11.678;2022-10-18T17:39:33;15.88;;;7.93;;